OMDM/NHD METAR and TAF weather

Enter ICAO airport designator
Station Type Date Time Source
OMDM METAR 2019/07/14 06:00 UTC NOAA

OMDM 140600Z 20008KT 170V230 6000 SKC 39/16 Q0999 A2952


Station Type Date Time Source
OMDM Decoded METAR 2019/07/14 06:00 UTC NOAA

Station name not available
Jul 14, 2019 - 02:00 AM EDT / 2019.07.14 0600 UTC
Wind: from the SSW (200 degrees) at 9 MPH (8 KT) (direction variable):0
Visibility: 3 mile(s):0
Sky conditions: clear
Temperature: 102 F (39 C)
Heat index: 102.7 F (39.3 C):1
Dew Point: 60 F (16 C)
Relative Humidity: 25%
Pressure (altimeter): 29.52 in. Hg (999 hPa)
ob: OMDM 140600Z 20008KT 170V230 6000 SKC 39/16 Q0999 A2952
cycle: 6

Station Type Date Time Source
OMDM TAF 2015/04/11 18:25 UTC NOAA

TAF OMDM 111725Z 1118/1224 06005KT 7000 NSC
BECMG 1203/1205 19013KT PROB30
TEMPO 1206/1212 21008G18KT 4000 DU
BECMG 1213/1215 35010KT
BECMG 1218/1220 12009KT

Example: see airport list